Riverton, WY

4:12 PM MST on December 17, 2014 (GMT -0700)
Logan Park | Change Station
CLOSE
Current Station
Personal Weather Station
Location: Riverton, WY
Elevation: 4984 ft
Nearby Weather Stations
Active Advisory: Dense Fog Advisory

Elev 4984 ft 43.04 °N, 108.39 °W | Updated 5 seconds ago

Fog
Fog
15.0 °F
Feels Like 15 °F
N
0.0
Wind Variable Wind from SSW
Gusts 2.0 mph

Today
High -- | Low -- °F
--% Chance of Precip.
Yesterday
High -- | Low -- °F
Precip. -- in
7:39 AM 4:39 PM
Waning Crescent, 19% visible
Pressure 30.11 in
Visibility 0.2 miles
Clouds
Windchill 15 °F
Dew Point 14 °F
Humidity 92%
Rainfall 0.00 in
Snow Depth Not available.
UV Not available.
Pollen .10 out of 12
Air Quality Not available.
Flu Activity Not available.
METAR KRIW 172253Z AUTO 00000KT M1/4SM FZFG VV001 M08/M11 A2994 RMK AO2 SLP195 T10831106

More Conditions Fewer Conditions

Pressure 30.11 in
Visibility 0.2 miles
Clouds
Windchill 15 °F
Dew Point 14 °F
Humidity 92%
Rainfall 0.00 in
Snow Depth Not available.
UV Not available.
Pollen .10 out of 12
Air Quality Not available.
Flu Activity Not available.
METAR KRIW 172253Z AUTO 00000KT M1/4SM FZFG VV001 M08/M11 A2994 RMK AO2 SLP195 T10831106

More Conditions Fewer Conditions

10-Day Weather Forecast

Almanac

Astronomy

Dec. 17, 2014 Rise Set
Actual Time
Civil Twilight
Nautical Twilight
Astronomical Twilight
Moon
Length of Visible Light
Length of Day
Tomorrow will be .
, % of the Moon is Illuminated

Today's Extremes

State Highs State Lows

Community

WunderPhotos

Upload Photos

1,778,822 photos uploaded!

WunderBlogs® & News

Nearby

Air Quality

  Air Quality AQ Index Pollutant
Not available.

Snow Depth

Station Depth Elevation

Earthquake Activity

City Distance Mag. Time & Date
Minimum magnitude displayed is 2.5.

Coastal Water Temperatures

Place Temperature

Nearby Weather Stations